createdAt,value
2018-06-30T00:00:16.305Z,79.75
2018-06-30T00:01:16.305Z,79.85
2018-06-30T00:02:16.308Z,80.14
2018-06-30T00:03:16.310Z,80.43
2018-06-30T00:04:16.362Z,80.04
2018-06-30T00:05:16.312Z,80.52
2018-06-30T00:06:16.312Z,81.01
2018-06-30T00:07:16.306Z,80.81
2018-06-30T00:08:16.305Z,81.39
2018-06-30T00:09:16.306Z,81.54
2018-06-30T00:10:16.308Z,81.63
2018-06-30T00:11:16.311Z,81.16
2018-06-30T00:12:16.311Z,82.60
2018-06-30T00:13:16.308Z,82.41
2018-06-30T00:14:16.306Z,82.60
2018-06-30T00:15:16.311Z,82.02
2018-06-30T00:16:16.310Z,82.79
2018-06-30T00:17:16.313Z,82.41
2018-06-30T00:18:16.312Z,82.31
2018-06-30T00:19:16.307Z,82.31
2018-06-30T00:20:16.307Z,82.70
2018-06-30T00:21:16.306Z,82.98
2018-06-30T00:22:16.305Z,83.08
2018-06-30T00:23:16.311Z,83.14
2018-06-30T00:24:16.311Z,82.85
2018-06-30T00:25:16.309Z,83.47
2018-06-30T00:26:16.309Z,83.47
2018-06-30T00:27:16.305Z,83.37
2018-06-30T00:28:16.304Z,83.52
2018-06-30T00:29:16.308Z,84.29
2018-06-30T00:30:16.310Z,84.19
2018-06-30T00:31:16.304Z,83.91
2018-06-30T00:32:16.306Z,83.72
2018-06-30T00:33:16.304Z,83.91
2018-06-30T00:34:16.303Z,83.72
2018-06-30T00:35:16.309Z,83.81
2018-06-30T00:36:16.306Z,84.00
2018-06-30T00:37:16.307Z,84.19
2018-06-30T00:38:16.366Z,84.19
2018-06-30T00:39:16.303Z,84.39
2018-06-30T00:40:16.300Z,84.58
2018-06-30T00:41:16.300Z,84.39
2018-06-30T00:42:16.300Z,83.33
2018-06-30T00:43:16.304Z,83.81
2018-06-30T00:44:16.304Z,83.62
2018-06-30T00:45:16.302Z,84.48
2018-06-30T00:46:16.299Z,83.52
2018-06-30T00:47:16.302Z,84.39
2018-06-30T00:48:16.302Z,84.19
2018-06-30T00:49:16.302Z,84.00
2018-06-30T00:50:16.305Z,84.10
2018-06-30T00:51:16.296Z,84.00
2018-06-30T00:52:16.316Z,84.87
2018-06-30T00:53:16.297Z,83.72
2018-06-30T00:54:16.298Z,84.29
2018-06-30T00:55:16.299Z,84.00
2018-06-30T00:56:16.299Z,84.39
2018-06-30T00:57:16.298Z,84.67
2018-06-30T00:58:16.299Z,84.77
2018-06-30T00:59:16.293Z,84.97
2018-06-30T01:00:16.292Z,84.97
2018-06-30T01:01:16.297Z,84.97
2018-06-30T01:02:16.298Z,84.97
2018-06-30T01:03:16.291Z,84.73
2018-06-30T01:04:16.289Z,85.06
2018-06-30T01:05:16.295Z,85.02
2018-06-30T01:06:16.290Z,85.11
2018-06-30T01:07:16.295Z,85.25
2018-06-30T01:08:16.292Z,85.06
2018-06-30T01:09:16.292Z,84.73
2018-06-30T01:10:16.291Z,85.02
2018-06-30T01:11:16.288Z,85.11
2018-06-30T01:12:16.287Z,85.69
2018-06-30T01:13:16.289Z,85.60
2018-06-30T01:14:16.284Z,85.69
2018-06-30T01:15:16.290Z,85.98
2018-06-30T01:16:16.287Z,85.69
2018-06-30T01:17:16.288Z,85.98
2018-06-30T01:18:16.284Z,85.69
2018-06-30T01:19:16.299Z,86.08
2018-06-30T01:20:16.284Z,86.08
2018-06-30T01:21:16.284Z,86.27
2018-06-30T01:22:16.285Z,86.08
2018-06-30T01:23:16.279Z,86.27
2018-06-30T01:24:16.279Z,86.22
2018-06-30T01:25:16.277Z,86.32
2018-06-30T01:26:16.277Z,86.99
2018-06-30T01:27:16.282Z,86.71
2018-06-30T01:28:16.281Z,86.71
2018-06-30T01:29:16.279Z,86.61
2018-06-30T01:30:16.279Z,86.61
2018-06-30T01:31:16.274Z,86.80
2018-06-30T01:32:16.276Z,86.90
2018-06-30T01:33:16.275Z,87.09
2018-06-30T01:34:16.318Z,86.80
2018-06-30T01:35:16.276Z,86.52
2018-06-30T01:36:16.271Z,86.71
2018-06-30T01:37:16.268Z,87.19
2018-06-30T01:38:16.267Z,87.19
2018-06-30T01:39:16.274Z,87.29
2018-06-30T01:40:16.271Z,87.29
2018-06-30T01:41:16.269Z,87.57
2018-06-30T01:42:16.270Z,87.86
2018-06-30T01:43:16.264Z,87.96
2018-06-30T01:44:16.264Z,87.57
2018-06-30T01:45:16.264Z,87.57
2018-06-30T01:46:16.261Z,87.86
2018-06-30T01:47:16.265Z,88.63
2018-06-30T01:48:16.262Z,88.63
2018-06-30T01:49:16.261Z,88.24
2018-06-30T01:50:16.258Z,88.06
2018-06-30T01:51:16.263Z,88.15
2018-06-30T01:52:16.259Z,88.44
2018-06-30T01:53:16.260Z,88.34
2018-06-30T01:54:16.262Z,88.15
2018-06-30T01:55:16.255Z,88.63
2018-06-30T01:56:16.251Z,88.44
2018-06-30T01:57:16.250Z,88.53
2018-06-30T01:58:16.249Z,88.10
2018-06-30T01:59:16.254Z,88.24
2018-06-30T02:00:16.252Z,88.39
2018-06-30T02:01:16.251Z,88.59
2018-06-30T02:02:16.250Z,88.34
2018-06-30T02:03:16.244Z,88.59
2018-06-30T02:04:16.242Z,88.49
2018-06-30T02:05:16.246Z,88.30
2018-06-30T02:06:16.246Z,88.59
2018-06-30T02:07:16.240Z,88.87
2018-06-30T02:08:16.239Z,88.82
2018-06-30T02:09:16.237Z,88.87
2018-06-30T02:10:16.237Z,88.68
2018-06-30T02:11:16.242Z,89.45
2018-06-30T02:12:16.242Z,89.36
2018-06-30T02:13:16.240Z,89.36
2018-06-30T02:14:16.239Z,89.26
2018-06-30T02:15:16.232Z,89.64
2018-06-30T02:16:16.230Z,89.54
2018-06-30T02:17:16.231Z,89.64
2018-06-30T02:18:16.229Z,90.03
2018-06-30T02:19:16.265Z,90.17
2018-06-30T02:20:16.231Z,90.84
2018-06-30T02:21:16.228Z,90.75
2018-06-30T02:22:16.226Z,90.94
2018-06-30T02:23:16.228Z,91.13
2018-06-30T02:24:16.231Z,91.42
2018-06-30T02:25:16.225Z,91.04
2018-06-30T02:26:16.224Z,90.56
2018-06-30T02:27:16.220Z,90.84
2018-06-30T02:28:16.218Z,90.84
2018-06-30T02:29:16.215Z,90.94
2018-06-30T02:30:16.216Z,91.33
2018-06-30T02:31:16.218Z,91.13
2018-06-30T02:32:16.216Z,91.13
2018-06-30T02:33:16.216Z,92.10
2018-06-30T02:34:16.219Z,91.42
2018-06-30T02:35:16.209Z,91.33
2018-06-30T02:36:16.207Z,92.00
2018-06-30T02:37:16.210Z,92.10
2018-06-30T02:38:16.212Z,91.71
2018-06-30T02:39:16.204Z,91.90
2018-06-30T02:40:16.201Z,91.61
2018-06-30T02:41:16.200Z,91.61
2018-06-30T02:42:16.198Z,92.05
2018-06-30T02:43:16.202Z,91.42
2018-06-30T02:44:16.200Z,90.99
2018-06-30T02:45:16.198Z,91.47
2018-06-30T02:46:16.200Z,91.09
2018-06-30T02:47:16.194Z,91.09
2018-06-30T02:48:16.191Z,91.09
2018-06-30T02:49:16.188Z,91.28
2018-06-30T02:50:16.189Z,91.96
2018-06-30T02:51:16.190Z,91.66
2018-06-30T02:52:16.196Z,91.90
2018-06-30T02:53:16.183Z,91.76
2018-06-30T02:54:16.181Z,92.24
2018-06-30T02:55:16.184Z,92.14
2018-06-30T02:56:16.182Z,91.76
2018-06-30T02:57:16.181Z,91.66
2018-06-30T02:58:16.181Z,91.86
2018-06-30T02:59:16.174Z,92.33
2018-06-30T03:00:16.173Z,91.76
2018-06-30T03:01:16.170Z,91.47
2018-06-30T03:02:16.168Z,92.33
2018-06-30T03:03:16.175Z,92.05
2018-06-30T03:04:16.169Z,92.24
2018-06-30T03:05:16.168Z,91.76
2018-06-30T03:06:16.168Z,92.14
2018-06-30T03:07:16.161Z,92.24
2018-06-30T03:08:16.161Z,92.33
2018-06-30T03:09:16.163Z,91.96
2018-06-30T03:10:16.161Z,91.96
2018-06-30T03:11:16.154Z,92.14
2018-06-30T03:12:16.153Z,92.24
2018-06-30T03:13:16.151Z,92.24
2018-06-30T03:14:16.148Z,92.53
2018-06-30T03:15:16.151Z,92.72
2018-06-30T03:16:16.149Z,93.01
2018-06-30T03:17:16.150Z,92.82
2018-06-30T03:18:16.148Z,92.82
2018-06-30T03:19:16.142Z,93.20
2018-06-30T03:20:16.140Z,93.39
2018-06-30T03:21:16.138Z,93.59
2018-06-30T03:22:16.137Z,93.49
2018-06-30T03:23:16.140Z,94.26
2018-06-30T03:24:16.135Z,94.35
2018-06-30T03:25:16.136Z,94.45
2018-06-30T03:26:16.131Z,93.87
2018-06-30T03:27:16.135Z,93.59
2018-06-30T03:28:16.131Z,93.68
2018-06-30T03:29:16.130Z,93.87
2018-06-30T03:30:16.127Z,93.39
2018-06-30T03:31:16.120Z,92.72
2018-06-30T03:32:16.119Z,92.82
2018-06-30T03:33:16.120Z,92.82
2018-06-30T03:34:16.117Z,92.82
2018-06-30T03:35:16.119Z,92.82
2018-06-30T03:36:16.119Z,93.10
2018-06-30T03:37:16.114Z,92.63
2018-06-30T03:38:16.113Z,93.10
2018-06-30T03:39:16.108Z,93.10
2018-06-30T03:40:16.106Z,92.96
2018-06-30T03:41:16.107Z,93.39
2018-06-30T03:42:16.111Z,93.68
2018-06-30T03:43:16.099Z,93.49
2018-06-30T03:44:16.097Z,93.77
2018-06-30T03:45:16.098Z,94.45
2018-06-30T03:46:16.131Z,94.35
2018-06-30T03:47:16.101Z,93.68
2018-06-30T03:48:16.098Z,93.68
2018-06-30T03:49:16.095Z,94.26
2018-06-30T03:50:16.093Z,93.97
2018-06-30T03:51:16.088Z,94.45
2018-06-30T03:52:16.087Z,94.35
2018-06-30T03:53:16.082Z,93.77
2018-06-30T03:54:16.081Z,93.59
2018-06-30T03:55:16.089Z,93.10
2018-06-30T03:56:16.082Z,93.10
2018-06-30T03:57:16.077Z,93.87
2018-06-30T03:58:16.083Z,93.49
2018-06-30T03:59:16.079Z,93.01
2018-06-30T04:00:16.076Z,93.87
2018-06-30T04:01:16.076Z,93.59
2018-06-30T04:02:16.072Z,93.49
2018-06-30T04:03:16.070Z,94.16
2018-06-30T04:04:16.065Z,93.20
2018-06-30T04:05:16.063Z,93.49
2018-06-30T04:06:16.061Z,93.68
2018-06-30T04:07:16.064Z,93.59
2018-06-30T04:08:16.062Z,93.82
2018-06-30T04:09:16.060Z,93.92
2018-06-30T04:10:16.059Z,93.44
2018-06-30T04:11:16.054Z,93.63
2018-06-30T04:12:16.051Z,93.82
2018-06-30T04:13:16.055Z,93.63
2018-06-30T04:14:16.053Z,93.44
2018-06-30T04:15:16.048Z,93.92
2018-06-30T04:16:16.045Z,93.25
2018-06-30T04:17:16.045Z,93.63
2018-06-30T04:18:16.042Z,93.54
2018-06-30T04:19:16.045Z,94.21
2018-06-30T04:20:16.043Z,94.21
2018-06-30T04:21:16.042Z,94.40
2018-06-30T04:22:16.041Z,93.63
2018-06-30T04:23:16.036Z,93.15
2018-06-30T04:24:16.036Z,93.82
2018-06-30T04:25:16.032Z,93.63
2018-06-30T04:26:16.031Z,93.63
2018-06-30T04:27:16.035Z,93.15
2018-06-30T04:28:16.034Z,93.82
2018-06-30T04:29:16.026Z,94.26
2018-06-30T04:30:16.025Z,93.77
2018-06-30T04:31:16.030Z,93.58
2018-06-30T04:32:16.026Z,93.96
2018-06-30T04:33:16.029Z,94.06
2018-06-30T04:34:16.024Z,93.39
2018-06-30T04:35:16.019Z,93.49
2018-06-30T04:36:16.016Z,93.19
2018-06-30T04:37:16.019Z,92.91
2018-06-30T04:38:16.014Z,93.01
2018-06-30T04:39:16.019Z,93.01
2018-06-30T04:40:16.016Z,93.01
2018-06-30T04:41:16.015Z,92.81
2018-06-30T04:42:16.014Z,92.67
2018-06-30T04:43:16.009Z,92.81
2018-06-30T04:44:16.006Z,92.91
2018-06-30T04:45:16.033Z,92.86
2018-06-30T04:46:16.008Z,92.47
2018-06-30T04:47:16.003Z,92.29
2018-06-30T04:48:16.000Z,92.47
2018-06-30T04:49:15.999Z,92.19
2018-06-30T04:50:15.998Z,91.90
2018-06-30T04:51:16.004Z,92.09
2018-06-30T04:52:15.999Z,91.80
2018-06-30T04:53:15.999Z,92.19
2018-06-30T04:54:15.998Z,91.32
2018-06-30T04:55:15.992Z,91.17
2018-06-30T04:56:15.991Z,91.46
2018-06-30T04:57:15.991Z,91.36
2018-06-30T04:58:15.990Z,91.85
2018-06-30T04:59:15.994Z,91.46
2018-06-30T05:00:15.992Z,91.08
2018-06-30T05:01:15.986Z,90.93
2018-06-30T05:02:15.986Z,90.64
2018-06-30T05:03:15.989Z,89.97
2018-06-30T05:04:15.988Z,89.39
2018-06-30T05:05:15.987Z,88.85
2018-06-30T05:06:15.987Z,89.15
2018-06-30T05:07:15.983Z,87.84
2018-06-30T05:08:15.982Z,87.55
2018-06-30T05:09:15.982Z,87.17
2018-06-30T05:10:15.983Z,86.44
2018-06-30T05:11:15.988Z,85.86
2018-06-30T05:12:15.990Z,86.48
2018-06-30T05:13:15.991Z,85.17
2018-06-30T05:14:15.991Z,84.21
2018-06-30T05:15:15.989Z,83.77
2018-06-30T05:16:15.989Z,82.84
2018-06-30T05:17:15.997Z,81.30
2018-06-30T05:18:15.999Z,80.38
2018-06-30T05:19:15.996Z,79.74
2018-06-30T05:20:15.998Z,78.91
2018-06-30T05:21:16.000Z,77.50
2018-06-30T05:22:16.004Z,75.98
2018-06-30T05:23:16.011Z,75.44
2018-06-30T05:24:16.015Z,73.35
2018-06-30T05:25:16.014Z,72.67
2018-06-30T05:26:16.017Z,70.86
2018-06-30T05:27:16.028Z,69.99
2018-06-30T05:28:16.029Z,69.93
2018-06-30T05:29:16.034Z,68.63
2018-06-30T05:30:16.038Z,68.28
2018-06-30T05:31:16.037Z,68.51
2018-06-30T05:32:16.041Z,67.96
2018-06-30T05:33:16.083Z,66.72
2018-06-30T05:34:16.055Z,65.40
2018-06-30T05:35:16.056Z,64.65
2018-06-30T05:36:16.061Z,62.94
2018-06-30T05:37:16.065Z,63.36
2018-06-30T05:38:16.070Z,63.45
2018-06-30T05:39:16.084Z,62.90
2018-06-30T05:40:16.086Z,63.03
2018-06-30T05:41:16.117Z,61.96
2018-06-30T05:42:16.097Z,61.83
2018-06-30T05:43:16.100Z,61.08
2018-06-30T05:44:16.103Z,60.23
2018-06-30T05:45:16.110Z,58.80
2018-06-30T05:46:16.115Z,58.63
2018-06-30T05:47:16.127Z,57.32
2018-06-30T05:48:16.131Z,55.34
2018-06-30T05:49:16.134Z,54.91
2018-06-30T05:50:16.140Z,53.66
2018-06-30T05:51:16.151Z,53.20
2018-06-30T05:52:16.157Z,52.71
2018-06-30T05:53:16.242Z,52.34
2018-06-30T05:54:16.172Z,51.68
2018-06-30T05:55:16.174Z,51.07
2018-06-30T05:56:16.181Z,52.02
2018-06-30T05:57:16.189Z,52.73
2018-06-30T05:58:16.196Z,52.69
2018-06-30T05:59:16.236Z,52.69
2018-06-30T06:00:16.216Z,51.83
2018-06-30T06:01:16.223Z,51.64
2018-06-30T06:02:16.231Z,51.27
2018-06-30T06:03:16.235Z,50.88
2018-06-30T06:04:16.243Z,50.68
2018-06-30T06:05:16.275Z,52.05
2018-06-30T06:06:16.264Z,51.07
2018-06-30T06:07:16.268Z,50.56
2018-06-30T06:08:16.276Z,50.68
2018-06-30T06:09:16.284Z,50.61
2018-06-30T06:10:16.294Z,49.95
2018-06-30T06:11:16.307Z,49.36
2018-06-30T06:12:16.316Z,49.26
2018-06-30T06:13:16.325Z,48.92
2018-06-30T06:14:16.334Z,47.74
2018-06-30T06:15:16.374Z,47.42
2018-06-30T06:16:16.346Z,47.84
2018-06-30T06:17:16.356Z,47.77
2018-06-30T06:18:16.365Z,47.39
2018-06-30T06:19:16.379Z,46.14
2018-06-30T06:20:16.389Z,45.30
2018-06-30T06:21:16.425Z,44.02
2018-06-30T06:22:16.404Z,43.85
2018-06-30T06:23:16.419Z,43.06
2018-06-30T06:24:16.428Z,43.19
2018-06-30T06:25:16.441Z,44.35
2018-06-30T06:26:16.453Z,44.08
2018-06-30T06:27:16.455Z,44.10
2018-06-30T06:28:16.465Z,44.04
2018-06-30T06:29:16.477Z,44.78
2018-06-30T06:30:16.487Z,45.47
2018-06-30T06:31:16.505Z,46.72
2018-06-30T06:32:16.514Z,46.54
2018-06-30T06:33:16.525Z,46.59
2018-06-30T06:34:16.538Z,46.61
2018-06-30T06:35:16.541Z,45.28
2018-06-30T06:36:16.552Z,44.15
2018-06-30T06:37:16.568Z,43.95
2018-06-30T06:38:16.578Z,43.08
2018-06-30T06:39:16.585Z,41.93
2018-06-30T06:40:16.596Z,41.69
2018-06-30T06:41:16.607Z,41.98
2018-06-30T06:42:16.619Z,42.96
2018-06-30T06:43:16.638Z,42.92
2018-06-30T06:44:16.647Z,43.00
2018-06-30T06:45:16.659Z,43.88
2018-06-30T06:46:16.671Z,44.37
2018-06-30T06:47:16.678Z,44.34
2018-06-30T06:48:16.688Z,43.06
2018-06-30T06:49:16.701Z,42.69
2018-06-30T06:50:16.715Z,42.71
2018-06-30T06:51:16.730Z,41.43
2018-06-30T06:52:16.743Z,41.17
2018-06-30T06:53:16.750Z,41.16
2018-06-30T06:54:16.763Z,40.39
2018-06-30T06:55:16.780Z,40.41
2018-06-30T06:56:16.817Z,40.23
2018-06-30T06:57:16.804Z,39.38
2018-06-30T06:58:16.816Z,38.81
2018-06-30T06:59:16.826Z,38.71
2018-06-30T07:00:16.837Z,38.43
2018-06-30T07:01:16.855Z,37.74
2018-06-30T07:02:16.865Z,37.45
2018-06-30T07:03:16.888Z,38.02
2018-06-30T07:04:16.894Z,37.72
2018-06-30T07:05:16.915Z,37.54
2018-06-30T07:06:16.923Z,37.36
2018-06-30T07:07:16.931Z,37.82
2018-06-30T07:08:16.944Z,37.84
2018-06-30T07:09:16.963Z,37.64
2018-06-30T07:10:16.977Z,37.66
2018-06-30T07:11:16.985Z,37.46
2018-06-30T07:12:16.999Z,36.75
2018-06-30T07:13:17.012Z,37.13
2018-06-30T07:14:17.026Z,36.44
2018-06-30T07:15:17.046Z,36.44
2018-06-30T07:16:17.058Z,36.50
2018-06-30T07:17:17.073Z,36.91
2018-06-30T07:18:17.087Z,37.55
2018-06-30T07:19:17.125Z,37.76
2018-06-30T07:20:17.111Z,37.41
2018-06-30T07:21:17.126Z,38.46
2018-06-30T07:22:17.140Z,39.00
2018-06-30T07:23:17.160Z,40.35
2018-06-30T07:24:17.173Z,41.21
2018-06-30T07:25:17.184Z,41.33
2018-06-30T07:26:17.197Z,40.96
2018-06-30T07:27:17.217Z,41.59
2018-06-30T07:28:17.231Z,40.72
2018-06-30T07:29:17.244Z,39.39
2018-06-30T07:30:17.270Z,38.81
2018-06-30T07:31:17.269Z,38.40
2018-06-30T07:32:17.282Z,38.95
2018-06-30T07:33:17.297Z,39.40
2018-06-30T07:34:17.311Z,40.31
2018-06-30T07:35:17.330Z,40.45
2018-06-30T07:36:17.344Z,39.81
2018-06-30T07:37:17.361Z,38.89
2018-06-30T07:38:17.373Z,37.92
2018-06-30T07:39:17.383Z,37.07
2018-06-30T07:40:17.398Z,35.44
2018-06-30T07:41:17.416Z,34.56
2018-06-30T07:42:17.431Z,34.53
2018-06-30T07:43:17.461Z,34.50
2018-06-30T07:44:17.456Z,34.48
2018-06-30T07:45:17.474Z,35.73
2018-06-30T07:46:17.486Z,36.90
2018-06-30T07:47:17.506Z,37.35
2018-06-30T07:48:17.522Z,38.14
2018-06-30T07:49:17.536Z,37.65
2018-06-30T07:50:17.610Z,37.45
2018-06-30T07:51:17.563Z,38.43
2018-06-30T07:52:17.576Z,39.09
2018-06-30T07:53:17.591Z,39.01
2018-06-30T07:54:17.606Z,38.79
2018-06-30T07:55:17.626Z,39.54
2018-06-30T07:56:17.643Z,40.33
2018-06-30T07:57:17.652Z,39.70
2018-06-30T07:58:17.667Z,39.39
2018-06-30T07:59:17.688Z,38.93
2018-06-30T08:00:17.701Z,38.49
2018-06-30T08:01:17.717Z,37.43
2018-06-30T08:02:17.732Z,36.87
2018-06-30T08:03:17.743Z,36.13
2018-06-30T08:04:17.758Z,35.63
2018-06-30T08:05:17.774Z,34.83
2018-06-30T08:06:17.792Z,35.38
2018-06-30T08:07:17.863Z,36.78
2018-06-30T08:08:17.828Z,36.71
2018-06-30T08:09:17.841Z,36.52
2018-06-30T08:10:17.857Z,36.22
2018-06-30T08:11:17.869Z,36.50
2018-06-30T08:12:17.884Z,37.35
2018-06-30T08:13:17.905Z,37.47
2018-06-30T08:14:17.921Z,37.53
2018-06-30T08:15:17.934Z,36.92
2018-06-30T08:16:17.948Z,37.63
2018-06-30T08:17:17.965Z,37.57
2018-06-30T08:18:17.980Z,37.09
2018-06-30T08:19:18.004Z,37.52
2018-06-30T08:20:18.018Z,37.38
2018-06-30T08:21:18.035Z,37.43
2018-06-30T08:22:18.051Z,37.17
2018-06-30T08:23:18.061Z,35.82
2018-06-30T08:24:18.081Z,33.82
2018-06-30T08:25:18.094Z,33.11
2018-06-30T08:26:18.110Z,33.73
2018-06-30T08:27:18.132Z,34.12
2018-06-30T08:28:18.148Z,34.38
2018-06-30T08:29:18.161Z,34.94
2018-06-30T08:30:18.179Z,35.11
2018-06-30T08:31:18.200Z,35.60
2018-06-30T08:32:18.216Z,35.99
2018-06-30T08:33:18.235Z,36.03
2018-06-30T08:34:18.256Z,35.49
2018-06-30T08:35:18.264Z,34.27
2018-06-30T08:36:18.344Z,33.98
2018-06-30T08:37:18.299Z,34.66
2018-06-30T08:38:18.317Z,34.66
2018-06-30T08:39:18.338Z,34.18
2018-06-30T08:40:18.355Z,34.43
2018-06-30T08:41:18.374Z,34.41
2018-06-30T08:42:18.391Z,35.37
2018-06-30T08:43:18.405Z,36.06
2018-06-30T08:44:18.421Z,36.24
2018-06-30T08:45:18.445Z,36.46
2018-06-30T08:46:18.461Z,36.24
2018-06-30T08:47:18.475Z,35.94
2018-06-30T08:48:18.491Z,36.08
2018-06-30T08:49:18.509Z,35.91
2018-06-30T08:50:18.527Z,35.21
2018-06-30T08:51:18.549Z,34.73
2018-06-30T08:52:18.565Z,34.53
2018-06-30T08:53:18.583Z,34.53
2018-06-30T08:54:18.601Z,34.61
2018-06-30T08:55:18.641Z,35.02
2018-06-30T08:56:18.632Z,34.99
2018-06-30T08:57:18.651Z,35.40
2018-06-30T08:58:18.667Z,35.68
2018-06-30T08:59:18.690Z,35.22
2018-06-30T09:00:18.708Z,33.78
2018-06-30T09:01:18.721Z,33.39
2018-06-30T09:02:18.738Z,33.52
2018-06-30T09:03:18.764Z,32.73
2018-06-30T09:04:18.778Z,32.30
2018-06-30T09:05:18.796Z,31.97
2018-06-30T09:06:18.849Z,32.46
2018-06-30T09:07:18.828Z,32.76
2018-06-30T09:08:18.846Z,33.34
2018-06-30T09:09:18.865Z,33.52
2018-06-30T09:10:18.883Z,34.44
2018-06-30T09:11:18.905Z,35.91
2018-06-30T09:12:19.034Z,36.25
2018-06-30T09:13:18.943Z,35.99
2018-06-30T09:14:18.962Z,35.05
2018-06-30T09:15:18.975Z,35.45
2018-06-30T09:16:19.030Z,35.07
2018-06-30T09:17:19.016Z,35.21
2018-06-30T09:18:19.038Z,33.95
2018-06-30T09:19:19.048Z,32.68
2018-06-30T09:20:19.079Z,31.82
2018-06-30T09:21:19.083Z,32.33
2018-06-30T09:22:19.102Z,31.88
2018-06-30T09:23:19.125Z,32.58
2018-06-30T09:24:19.143Z,32.80
2018-06-30T09:25:19.162Z,33.42
2018-06-30T09:26:19.180Z,32.85
2018-06-30T09:27:19.195Z,32.17
2018-06-30T09:28:19.212Z,31.77
2018-06-30T09:29:19.231Z,31.96
2018-06-30T09:30:19.254Z,32.04
2018-06-30T09:31:19.274Z,32.12
2018-06-30T09:32:19.292Z,32.34
2018-06-30T09:33:19.307Z,31.87
2018-06-30T09:34:19.325Z,32.02
2018-06-30T09:35:19.355Z,31.32
2018-06-30T09:36:19.367Z,31.88
2018-06-30T09:37:19.384Z,31.49
2018-06-30T09:38:19.403Z,31.85
2018-06-30T09:39:19.418Z,30.95
2018-06-30T09:40:19.436Z,31.74
2018-06-30T09:41:19.455Z,31.59
2018-06-30T09:42:19.474Z,33.36
2018-06-30T09:43:19.498Z,34.13
2018-06-30T09:44:19.528Z,34.55
2018-06-30T09:45:19.536Z,33.98
2018-06-30T09:46:19.556Z,33.42
2018-06-30T09:47:19.568Z,32.15
2018-06-30T09:48:19.585Z,32.35
2018-06-30T09:49:19.609Z,32.45
2018-06-30T09:50:19.628Z,31.77
2018-06-30T09:51:19.642Z,31.73
2018-06-30T09:52:19.659Z,31.47
2018-06-30T09:53:19.678Z,32.98
2018-06-30T09:54:19.697Z,34.05
2018-06-30T09:55:19.720Z,34.80
2018-06-30T09:56:19.738Z,35.77
2018-06-30T09:57:19.757Z,36.47
2018-06-30T09:58:19.774Z,36.33
2018-06-30T09:59:19.790Z,35.66
2018-06-30T10:00:19.805Z,35.30
2018-06-30T10:01:19.823Z,34.39
2018-06-30T10:02:19.840Z,34.15
2018-06-30T10:03:19.864Z,34.25
2018-06-30T10:04:19.881Z,33.95
2018-06-30T10:05:19.895Z,34.15
2018-06-30T10:06:19.911Z,33.89
2018-06-30T10:07:19.934Z,32.92
2018-06-30T10:08:19.951Z,32.21
2018-06-30T10:09:19.971Z,32.09
2018-06-30T10:10:19.987Z,32.59
2018-06-30T10:11:20.000Z,32.92
2018-06-30T10:12:20.017Z,32.43
2018-06-30T10:13:20.035Z,32.32
2018-06-30T10:14:20.053Z,32.04
2018-06-30T10:15:20.075Z,32.12
2018-06-30T10:16:20.094Z,32.24
2018-06-30T10:17:20.112Z,32.14
2018-06-30T10:18:20.130Z,31.54
2018-06-30T10:19:20.179Z,31.22
2018-06-30T10:20:20.161Z,31.02
2018-06-30T10:21:20.185Z,31.22
2018-06-30T10:22:20.203Z,31.92
2018-06-30T10:23:20.216Z,32.82
2018-06-30T10:24:20.234Z,33.39
2018-06-30T10:25:20.251Z,33.97
2018-06-30T10:26:20.272Z,34.53
2018-06-30T10:27:20.293Z,34.95
2018-06-30T10:28:20.310Z,34.94
2018-06-30T10:29:20.329Z,35.51
2018-06-30T10:30:20.351Z,35.71
2018-06-30T10:31:20.370Z,35.25
2018-06-30T10:32:20.378Z,35.02
2018-06-30T10:33:20.396Z,35.31
2018-06-30T10:34:20.412Z,36.04
2018-06-30T10:35:29.514Z,35.46
2018-06-30T10:36:29.529Z,34.38
2018-06-30T10:37:29.589Z,34.46
2018-06-30T10:38:29.560Z,35.46
2018-06-30T10:39:29.577Z,35.30
2018-06-30T10:40:29.598Z,34.43
2018-06-30T10:41:29.617Z,34.00
2018-06-30T10:42:29.629Z,34.44
2018-06-30T10:43:29.645Z,35.43
2018-06-30T10:44:29.726Z,35.25
2018-06-30T10:45:29.687Z,35.36
2018-06-30T10:46:29.705Z,34.97
2018-06-30T10:47:29.720Z,35.08
2018-06-30T10:48:29.733Z,34.56
2018-06-30T10:49:29.750Z,35.05
2018-06-30T10:50:29.768Z,34.97
2018-06-30T10:51:29.785Z,34.59
2018-06-30T10:52:29.807Z,34.71
2018-06-30T10:53:29.823Z,34.39
2018-06-30T10:54:29.840Z,34.43
2018-06-30T10:55:29.886Z,34.43
2018-06-30T10:56:29.870Z,33.53
2018-06-30T10:57:29.888Z,33.62
2018-06-30T10:58:29.910Z,33.64
2018-06-30T10:59:29.926Z,33.58
2018-06-30T11:00:30.001Z,32.57
2018-06-30T11:01:29.957Z,32.62
2018-06-30T11:02:29.975Z,33.53
2018-06-30T11:03:29.991Z,33.53
2018-06-30T11:04:30.019Z,33.15
2018-06-30T11:05:30.032Z,33.26
2018-06-30T11:06:30.050Z,32.78
2018-06-30T11:07:30.066Z,31.71
2018-06-30T11:08:30.079Z,31.30
2018-06-30T11:09:30.096Z,31.10
2018-06-30T11:10:30.113Z,30.89
2018-06-30T11:11:30.130Z,32.04
2018-06-30T11:12:30.153Z,32.85
2018-06-30T11:13:30.170Z,33.13
2018-06-30T11:14:30.183Z,33.44
2018-06-30T11:15:30.201Z,33.03
2018-06-30T11:16:30.222Z,32.70
2018-06-30T11:17:30.247Z,33.77
2018-06-30T11:18:30.257Z,34.33
2018-06-30T11:19:30.275Z,35.13
2018-06-30T11:20:30.287Z,35.21
2018-06-30T11:21:30.305Z,35.78
2018-06-30T11:22:30.346Z,36.08
2018-06-30T11:23:30.336Z,36.07
2018-06-30T11:24:30.360Z,36.63
2018-06-30T11:25:30.375Z,37.21
2018-06-30T11:26:30.389Z,37.30
2018-06-30T11:27:30.404Z,36.82
2018-06-30T11:28:30.417Z,36.90
2018-06-30T11:29:30.490Z,37.27
2018-06-30T11:30:30.450Z,37.92
2018-06-30T11:31:30.468Z,38.75
2018-06-30T11:32:30.474Z,39.10
2018-06-30T11:33:30.487Z,40.55
2018-06-30T11:34:30.502Z,41.50
2018-06-30T11:35:30.513Z,42.30
2018-06-30T11:36:30.531Z,42.99
2018-06-30T11:37:30.542Z,42.69
2018-06-30T11:38:30.556Z,42.87
2018-06-30T11:39:30.565Z,43.36
2018-06-30T11:40:30.648Z,43.46
2018-06-30T11:41:30.584Z,43.07
2018-06-30T11:42:30.595Z,43.16
2018-06-30T11:43:30.602Z,43.26
2018-06-30T11:44:30.618Z,43.38
2018-06-30T11:45:30.628Z,43.38
2018-06-30T11:46:30.631Z,43.57
2018-06-30T11:47:30.640Z,43.28
2018-06-30T11:48:30.655Z,42.68
2018-06-30T11:49:30.663Z,43.46
2018-06-30T11:50:30.779Z,43.36
2018-06-30T11:51:30.678Z,43.87
2018-06-30T11:52:30.684Z,42.87
2018-06-30T11:53:30.690Z,42.75
2018-06-30T11:54:30.700Z,42.93
2018-06-30T11:55:30.706Z,43.92
2018-06-30T11:56:30.718Z,43.73
2018-06-30T11:57:30.726Z,43.82
2018-06-30T11:58:30.735Z,43.82
2018-06-30T11:59:30.740Z,42.73
2018-06-30T12:00:30.743Z,42.83
2018-06-30T12:01:30.751Z,43.32
2018-06-30T12:02:30.764Z,43.22
2018-06-30T12:03:30.833Z,43.12
2018-06-30T12:04:30.773Z,42.88
2018-06-30T12:05:30.779Z,43.57
2018-06-30T12:06:30.785Z,43.93
2018-06-30T12:07:30.791Z,44.23
2018-06-30T12:08:30.802Z,45.00
2018-06-30T12:09:30.811Z,45.20
2018-06-30T12:10:30.815Z,44.54
2018-06-30T12:11:30.824Z,43.85
2018-06-30T12:12:30.823Z,43.95
2018-06-30T12:13:30.830Z,43.47
2018-06-30T12:14:30.836Z,43.85
2018-06-30T12:15:30.843Z,44.15
2018-06-30T12:16:30.855Z,43.78
2018-06-30T12:17:30.859Z,43.88
2018-06-30T12:18:30.860Z,43.61
2018-06-30T12:19:30.865Z,43.22
2018-06-30T12:20:30.877Z,43.32
2018-06-30T12:21:30.883Z,42.83
2018-06-30T12:22:30.889Z,42.83
2018-06-30T12:23:30.894Z,42.93
2018-06-30T12:24:30.895Z,42.63
2018-06-30T12:25:30.901Z,42.22
2018-06-30T12:26:30.906Z,42.10
2018-06-30T12:27:30.912Z,42.49
2018-06-30T12:28:30.922Z,42.59
2018-06-30T12:29:30.928Z,42.69
2018-06-30T12:30:30.935Z,42.61
2018-06-30T12:31:30.940Z,42.71
2018-06-30T12:32:30.941Z,42.10
2018-06-30T12:33:30.947Z,41.20
2018-06-30T12:34:30.958Z,41.20
2018-06-30T12:35:30.963Z,41.30
2018-06-30T12:36:30.964Z,41.42
2018-06-30T12:37:30.969Z,41.91
2018-06-30T12:38:30.974Z,41.13
2018-06-30T12:39:30.979Z,41.91
2018-06-30T12:40:30.991Z,42.00
2018-06-30T12:41:30.995Z,41.52
2018-06-30T12:42:31.003Z,42.02
2018-06-30T12:43:31.007Z,41.35
2018-06-30T12:44:31.007Z,40.35
2018-06-30T12:45:31.014Z,40.93
2018-06-30T12:46:31.020Z,41.22
2018-06-30T12:47:31.022Z,40.45
2018-06-30T12:48:31.032Z,40.83
2018-06-30T12:49:31.039Z,40.83
2018-06-30T12:50:31.040Z,41.15
2018-06-30T12:51:31.048Z,41.15
2018-06-30T12:52:31.054Z,40.47